sensor_id;sensor_type;location;lat;lon;timestamp;P1;durP1;ratioP1;P2;durP2;ratioP2
10430;SDS011;5262;59.958;17.726;2024-02-23T00:02:24;36.00;;;15.87;;
10430;SDS011;5262;59.958;17.726;2024-02-23T00:04:50;36.20;;;15.93;;
10430;SDS011;5262;59.958;17.726;2024-02-23T00:07:16;41.67;;;17.63;;
10430;SDS011;5262;59.958;17.726;2024-02-23T00:09:41;48.53;;;19.63;;
10430;SDS011;5262;59.958;17.726;2024-02-23T00:12:07;39.17;;;18.40;;
10430;SDS011;5262;59.958;17.726;2024-02-23T00:14:33;48.57;;;19.53;;
10430;SDS011;5262;59.958;17.726;2024-02-23T00:17:03;41.17;;;20.23;;
10430;SDS011;5262;59.958;17.726;2024-02-23T00:19:30;45.47;;;19.23;;
10430;SDS011;5262;59.958;17.726;2024-02-23T00:21:55;38.63;;;18.53;;
10430;SDS011;5262;59.958;17.726;2024-02-23T00:24:21;59.43;;;20.47;;
10430;SDS011;5262;59.958;17.726;2024-02-23T00:26:48;43.97;;;17.83;;
10430;SDS011;5262;59.958;17.726;2024-02-23T00:29:13;46.33;;;18.37;;
10430;SDS011;5262;59.958;17.726;2024-02-23T00:31:39;41.83;;;17.77;;
10430;SDS011;5262;59.958;17.726;2024-02-23T00:34:08;38.40;;;18.47;;
10430;SDS011;5262;59.958;17.726;2024-02-23T00:36:38;35.57;;;16.87;;
10430;SDS011;5262;59.958;17.726;2024-02-23T00:39:07;50.40;;;19.40;;
10430;SDS011;5262;59.958;17.726;2024-02-23T00:41:34;50.30;;;18.90;;
10430;SDS011;5262;59.958;17.726;2024-02-23T00:44:00;39.30;;;17.83;;
10430;SDS011;5262;59.958;17.726;2024-02-23T00:46:26;46.20;;;18.87;;
10430;SDS011;5262;59.958;17.726;2024-02-23T00:48:51;35.87;;;17.30;;
10430;SDS011;5262;59.958;17.726;2024-02-23T00:51:17;49.83;;;18.37;;
10430;SDS011;5262;59.958;17.726;2024-02-23T00:53:43;41.83;;;19.73;;
10430;SDS011;5262;59.958;17.726;2024-02-23T00:56:08;37.07;;;16.87;;
10430;SDS011;5262;59.958;17.726;2024-02-23T00:58:34;41.97;;;18.57;;
10430;SDS011;5262;59.958;17.726;2024-02-23T01:01:00;35.23;;;17.67;;
10430;SDS011;5262;59.958;17.726;2024-02-23T01:03:25;45.07;;;18.57;;
10430;SDS011;5262;59.958;17.726;2024-02-23T01:05:51;39.93;;;18.17;;
10430;SDS011;5262;59.958;17.726;2024-02-23T01:08:17;35.83;;;18.10;;
10430;SDS011;5262;59.958;17.726;2024-02-23T01:10:43;37.20;;;16.87;;
10430;SDS011;5262;59.958;17.726;2024-02-23T01:13:08;32.83;;;16.07;;
10430;SDS011;5262;59.958;17.726;2024-02-23T01:15:34;27.83;;;15.00;;
10430;SDS011;5262;59.958;17.726;2024-02-23T01:18:00;34.83;;;16.37;;
10430;SDS011;5262;59.958;17.726;2024-02-23T01:20:26;33.97;;;15.83;;
10430;SDS011;5262;59.958;17.726;2024-02-23T01:22:51;35.83;;;16.87;;
10430;SDS011;5262;59.958;17.726;2024-02-23T01:25:17;32.63;;;16.60;;
10430;SDS011;5262;59.958;17.726;2024-02-23T01:27:43;34.93;;;16.80;;
10430;SDS011;5262;59.958;17.726;2024-02-23T01:30:09;33.93;;;15.33;;
10430;SDS011;5262;59.958;17.726;2024-02-23T01:32:36;31.57;;;15.93;;
10430;SDS011;5262;59.958;17.726;2024-02-23T01:35:03;30.70;;;15.30;;
10430;SDS011;5262;59.958;17.726;2024-02-23T01:37:33;22.57;;;12.10;;
10430;SDS011;5262;59.958;17.726;2024-02-23T01:39:59;31.90;;;14.73;;
10430;SDS011;5262;59.958;17.726;2024-02-23T01:42:25;25.90;;;12.63;;
10430;SDS011;5262;59.958;17.726;2024-02-23T01:44:51;23.83;;;13.17;;
10430;SDS011;5262;59.958;17.726;2024-02-23T01:47:18;19.70;;;11.37;;
10430;SDS011;5262;59.958;17.726;2024-02-23T01:49:44;20.57;;;12.50;;
10430;SDS011;5262;59.958;17.726;2024-02-23T01:52:12;20.30;;;11.10;;
10430;SDS011;5262;59.958;17.726;2024-02-23T01:54:39;19.33;;;10.47;;
10430;SDS011;5262;59.958;17.726;2024-02-23T01:57:05;16.03;;;11.00;;
10430;SDS011;5262;59.958;17.726;2024-02-23T01:59:34;19.97;;;10.07;;
10430;SDS011;5262;59.958;17.726;2024-02-23T02:02:04;17.57;;;9.57;;
10430;SDS011;5262;59.958;17.726;2024-02-23T02:04:30;19.80;;;9.60;;
10430;SDS011;5262;59.958;17.726;2024-02-23T02:06:56;18.47;;;9.33;;
10430;SDS011;5262;59.958;17.726;2024-02-23T02:09:23;20.83;;;10.57;;
10430;SDS011;5262;59.958;17.726;2024-02-23T02:11:49;14.97;;;9.03;;
10430;SDS011;5262;59.958;17.726;2024-02-23T02:14:15;14.93;;;9.43;;
10430;SDS011;5262;59.958;17.726;2024-02-23T02:16:41;15.10;;;9.00;;
10430;SDS011;5262;59.958;17.726;2024-02-23T02:19:07;15.17;;;9.27;;
10430;SDS011;5262;59.958;17.726;2024-02-23T02:21:33;15.63;;;9.77;;
10430;SDS011;5262;59.958;17.726;2024-02-23T02:23:59;15.50;;;9.30;;
10430;SDS011;5262;59.958;17.726;2024-02-23T02:26:24;15.30;;;9.07;;
10430;SDS011;5262;59.958;17.726;2024-02-23T02:28:50;18.53;;;9.37;;
10430;SDS011;5262;59.958;17.726;2024-02-23T02:31:17;20.70;;;9.40;;
10430;SDS011;5262;59.958;17.726;2024-02-23T02:33:43;14.87;;;8.63;;
10430;SDS011;5262;59.958;17.726;2024-02-23T02:36:09;14.80;;;8.93;;
10430;SDS011;5262;59.958;17.726;2024-02-23T02:38:35;14.00;;;9.40;;
10430;SDS011;5262;59.958;17.726;2024-02-23T02:41:01;12.60;;;8.73;;
10430;SDS011;5262;59.958;17.726;2024-02-23T02:43:27;15.87;;;9.13;;
10430;SDS011;5262;59.958;17.726;2024-02-23T02:45:52;15.83;;;9.83;;
10430;SDS011;5262;59.958;17.726;2024-02-23T02:48:18;16.00;;;9.03;;
10430;SDS011;5262;59.958;17.726;2024-02-23T02:50:44;15.50;;;8.57;;
10430;SDS011;5262;59.958;17.726;2024-02-23T02:53:10;20.20;;;9.17;;
10430;SDS011;5262;59.958;17.726;2024-02-23T02:55:36;14.83;;;9.63;;
10430;SDS011;5262;59.958;17.726;2024-02-23T02:58:04;18.07;;;9.47;;
10430;SDS011;5262;59.958;17.726;2024-02-23T03:00:30;14.90;;;9.43;;
10430;SDS011;5262;59.958;17.726;2024-02-23T03:02:56;13.03;;;8.93;;
10430;SDS011;5262;59.958;17.726;2024-02-23T03:05:22;20.23;;;9.57;;
10430;SDS011;5262;59.958;17.726;2024-02-23T03:07:47;13.80;;;8.57;;
10430;SDS011;5262;59.958;17.726;2024-02-23T03:10:13;16.40;;;10.50;;
10430;SDS011;5262;59.958;17.726;2024-02-23T03:12:39;19.87;;;10.47;;
10430;SDS011;5262;59.958;17.726;2024-02-23T03:15:05;15.73;;;9.83;;
10430;SDS011;5262;59.958;17.726;2024-02-23T03:17:31;18.20;;;10.03;;
10430;SDS011;5262;59.958;17.726;2024-02-23T03:19:57;18.43;;;10.37;;
10430;SDS011;5262;59.958;17.726;2024-02-23T03:22:23;19.17;;;10.87;;
10430;SDS011;5262;59.958;17.726;2024-02-23T03:24:49;15.87;;;10.10;;
10430;SDS011;5262;59.958;17.726;2024-02-23T03:27:15;19.80;;;11.33;;
10430;SDS011;5262;59.958;17.726;2024-02-23T03:29:40;17.40;;;10.90;;
10430;SDS011;5262;59.958;17.726;2024-02-23T03:32:07;20.93;;;10.33;;
10430;SDS011;5262;59.958;17.726;2024-02-23T03:34:32;20.07;;;10.30;;
10430;SDS011;5262;59.958;17.726;2024-02-23T03:36:58;23.47;;;11.37;;
10430;SDS011;5262;59.958;17.726;2024-02-23T03:39:25;21.63;;;11.43;;
10430;SDS011;5262;59.958;17.726;2024-02-23T03:41:50;25.30;;;10.93;;
10430;SDS011;5262;59.958;17.726;2024-02-23T03:44:16;25.63;;;11.60;;
10430;SDS011;5262;59.958;17.726;2024-02-23T03:46:42;19.93;;;12.87;;
10430;SDS011;5262;59.958;17.726;2024-02-23T03:49:07;23.53;;;12.00;;
10430;SDS011;5262;59.958;17.726;2024-02-23T03:51:33;18.10;;;11.23;;
10430;SDS011;5262;59.958;17.726;2024-02-23T03:54:01;21.77;;;12.37;;
10430;SDS011;5262;59.958;17.726;2024-02-23T03:56:28;21.33;;;11.60;;
10430;SDS011;5262;59.958;17.726;2024-02-23T03:58:53;21.73;;;12.27;;
10430;SDS011;5262;59.958;17.726;2024-02-23T04:01:19;19.33;;;12.03;;
10430;SDS011;5262;59.958;17.726;2024-02-23T04:03:45;22.70;;;11.57;;
10430;SDS011;5262;59.958;17.726;2024-02-23T04:06:10;20.70;;;12.03;;
10430;SDS011;5262;59.958;17.726;2024-02-23T04:08:36;21.53;;;11.90;;
10430;SDS011;5262;59.958;17.726;2024-02-23T04:11:02;19.27;;;11.33;;
10430;SDS011;5262;59.958;17.726;2024-02-23T04:13:30;17.00;;;11.33;;
10430;SDS011;5262;59.958;17.726;2024-02-23T04:15:56;19.37;;;11.20;;
10430;SDS011;5262;59.958;17.726;2024-02-23T04:18:22;13.43;;;8.40;;
10430;SDS011;5262;59.958;17.726;2024-02-23T04:20:48;18.03;;;10.40;;
10430;SDS011;5262;59.958;17.726;2024-02-23T04:23:13;14.57;;;9.30;;
10430;SDS011;5262;59.958;17.726;2024-02-23T04:25:39;16.50;;;9.10;;
10430;SDS011;5262;59.958;17.726;2024-02-23T04:28:05;15.17;;;8.73;;
10430;SDS011;5262;59.958;17.726;2024-02-23T04:30:30;17.00;;;9.67;;
10430;SDS011;5262;59.958;17.726;2024-02-23T04:32:56;14.53;;;9.27;;
10430;SDS011;5262;59.958;17.726;2024-02-23T04:35:22;13.47;;;8.53;;
10430;SDS011;5262;59.958;17.726;2024-02-23T04:37:47;12.63;;;8.37;;
10430;SDS011;5262;59.958;17.726;2024-02-23T04:40:14;12.67;;;8.40;;
10430;SDS011;5262;59.958;17.726;2024-02-23T04:42:40;11.67;;;8.20;;
10430;SDS011;5262;59.958;17.726;2024-02-23T04:45:08;13.23;;;9.23;;
10430;SDS011;5262;59.958;17.726;2024-02-23T04:47:34;14.33;;;9.03;;
10430;SDS011;5262;59.958;17.726;2024-02-23T04:50:00;12.97;;;7.73;;
10430;SDS011;5262;59.958;17.726;2024-02-23T04:52:27;12.80;;;8.27;;
10430;SDS011;5262;59.958;17.726;2024-02-23T04:54:53;11.63;;;7.80;;
10430;SDS011;5262;59.958;17.726;2024-02-23T04:57:19;10.10;;;7.97;;
10430;SDS011;5262;59.958;17.726;2024-02-23T04:59:44;11.43;;;7.87;;
10430;SDS011;5262;59.958;17.726;2024-02-23T05:02:10;11.87;;;8.50;;
10430;SDS011;5262;59.958;17.726;2024-02-23T05:04:36;14.47;;;7.90;;
10430;SDS011;5262;59.958;17.726;2024-02-23T05:07:02;14.50;;;9.17;;
10430;SDS011;5262;59.958;17.726;2024-02-23T05:09:27;16.20;;;9.67;;
10430;SDS011;5262;59.958;17.726;2024-02-23T05:11:54;14.27;;;8.40;;
10430;SDS011;5262;59.958;17.726;2024-02-23T05:14:20;16.17;;;10.07;;
10430;SDS011;5262;59.958;17.726;2024-02-23T05:16:45;13.17;;;8.80;;
10430;SDS011;5262;59.958;17.726;2024-02-23T05:19:11;16.40;;;10.37;;
10430;SDS011;5262;59.958;17.726;2024-02-23T05:21:37;14.07;;;9.07;;
10430;SDS011;5262;59.958;17.726;2024-02-23T05:24:02;14.07;;;9.67;;
10430;SDS011;5262;59.958;17.726;2024-02-23T05:26:28;18.27;;;11.33;;
10430;SDS011;5262;59.958;17.726;2024-02-23T05:28:54;18.30;;;10.53;;
10430;SDS011;5262;59.958;17.726;2024-02-23T05:31:20;14.87;;;10.00;;
10430;SDS011;5262;59.958;17.726;2024-02-23T05:34:05;20.27;;;10.40;;
10430;SDS011;5262;59.958;17.726;2024-02-23T05:36:31;14.33;;;9.33;;
10430;SDS011;5262;59.958;17.726;2024-02-23T05:38:57;14.97;;;9.30;;
10430;SDS011;5262;59.958;17.726;2024-02-23T05:41:22;14.73;;;9.23;;
10430;SDS011;5262;59.958;17.726;2024-02-23T05:43:48;16.00;;;9.50;;
10430;SDS011;5262;59.958;17.726;2024-02-23T05:46:13;12.47;;;8.10;;
10430;SDS011;5262;59.958;17.726;2024-02-23T05:48:39;15.67;;;9.30;;
10430;SDS011;5262;59.958;17.726;2024-02-23T05:51:04;12.93;;;8.67;;
10430;SDS011;5262;59.958;17.726;2024-02-23T05:53:30;13.93;;;8.70;;
10430;SDS011;5262;59.958;17.726;2024-02-23T05:55:58;14.20;;;8.47;;
10430;SDS011;5262;59.958;17.726;2024-02-23T05:58:23;12.97;;;8.03;;
10430;SDS011;5262;59.958;17.726;2024-02-23T06:00:49;13.23;;;8.17;;
10430;SDS011;5262;59.958;17.726;2024-02-23T06:03:16;10.07;;;7.40;;
10430;SDS011;5262;59.958;17.726;2024-02-23T06:05:43;9.87;;;6.97;;
10430;SDS011;5262;59.958;17.726;2024-02-23T06:08:09;9.53;;;7.20;;
10430;SDS011;5262;59.958;17.726;2024-02-23T06:10:34;9.43;;;6.80;;
10430;SDS011;5262;59.958;17.726;2024-02-23T06:13:00;8.90;;;6.57;;
10430;SDS011;5262;59.958;17.726;2024-02-23T06:15:26;11.47;;;6.57;;
10430;SDS011;5262;59.958;17.726;2024-02-23T06:17:51;9.87;;;6.20;;
10430;SDS011;5262;59.958;17.726;2024-02-23T06:20:17;9.07;;;6.30;;
10430;SDS011;5262;59.958;17.726;2024-02-23T06:22:43;9.67;;;6.03;;
10430;SDS011;5262;59.958;17.726;2024-02-23T06:25:08;8.97;;;6.70;;
10430;SDS011;5262;59.958;17.726;2024-02-23T06:27:35;8.97;;;6.60;;
10430;SDS011;5262;59.958;17.726;2024-02-23T06:30:01;10.57;;;6.90;;
10430;SDS011;5262;59.958;17.726;2024-02-23T06:32:27;6.97;;;6.03;;
10430;SDS011;5262;59.958;17.726;2024-02-23T06:34:52;8.40;;;6.57;;
10430;SDS011;5262;59.958;17.726;2024-02-23T06:37:19;8.70;;;7.00;;
10430;SDS011;5262;59.958;17.726;2024-02-23T06:39:45;13.13;;;7.60;;
10430;SDS011;5262;59.958;17.726;2024-02-23T06:42:15;14.73;;;8.23;;
10430;SDS011;5262;59.958;17.726;2024-02-23T06:44:40;13.37;;;7.70;;
10430;SDS011;5262;59.958;17.726;2024-02-23T06:47:06;11.67;;;8.90;;
10430;SDS011;5262;59.958;17.726;2024-02-23T06:49:32;13.20;;;8.13;;
10430;SDS011;5262;59.958;17.726;2024-02-23T06:51:57;12.03;;;8.17;;
10430;SDS011;5262;59.958;17.726;2024-02-23T06:54:23;11.70;;;8.43;;
10430;SDS011;5262;59.958;17.726;2024-02-23T06:56:49;10.63;;;7.50;;
10430;SDS011;5262;59.958;17.726;2024-02-23T06:59:14;10.33;;;6.93;;
10430;SDS011;5262;59.958;17.726;2024-02-23T07:01:50;13.30;;;8.27;;
10430;SDS011;5262;59.958;17.726;2024-02-23T07:04:16;12.40;;;7.80;;
10430;SDS011;5262;59.958;17.726;2024-02-23T07:06:42;10.97;;;7.23;;
10430;SDS011;5262;59.958;17.726;2024-02-23T07:09:08;12.87;;;8.07;;
10430;SDS011;5262;59.958;17.726;2024-02-23T07:11:34;12.37;;;7.73;;
10430;SDS011;5262;59.958;17.726;2024-02-23T07:13:59;10.07;;;7.67;;
10430;SDS011;5262;59.958;17.726;2024-02-23T07:16:25;10.37;;;7.60;;
10430;SDS011;5262;59.958;17.726;2024-02-23T07:18:51;12.13;;;8.17;;
10430;SDS011;5262;59.958;17.726;2024-02-23T07:21:17;13.33;;;8.13;;
10430;SDS011;5262;59.958;17.726;2024-02-23T07:23:43;9.50;;;7.07;;
10430;SDS011;5262;59.958;17.726;2024-02-23T07:26:09;11.07;;;8.50;;
10430;SDS011;5262;59.958;17.726;2024-02-23T07:28:34;11.33;;;8.27;;
10430;SDS011;5262;59.958;17.726;2024-02-23T07:31:00;10.97;;;7.80;;
10430;SDS011;5262;59.958;17.726;2024-02-23T07:33:25;9.93;;;7.30;;
10430;SDS011;5262;59.958;17.726;2024-02-23T07:35:51;11.93;;;7.50;;
10430;SDS011;5262;59.958;17.726;2024-02-23T07:38:17;11.13;;;7.43;;
10430;SDS011;5262;59.958;17.726;2024-02-23T07:40:45;12.27;;;8.27;;
10430;SDS011;5262;59.958;17.726;2024-02-23T07:43:11;9.27;;;7.43;;
10430;SDS011;5262;59.958;17.726;2024-02-23T07:45:37;8.97;;;6.23;;
10430;SDS011;5262;59.958;17.726;2024-02-23T07:48:03;10.37;;;7.40;;
10430;SDS011;5262;59.958;17.726;2024-02-23T07:50:29;10.10;;;7.60;;
10430;SDS011;5262;59.958;17.726;2024-02-23T07:52:54;11.40;;;8.40;;
10430;SDS011;5262;59.958;17.726;2024-02-23T07:55:20;10.00;;;7.67;;
10430;SDS011;5262;59.958;17.726;2024-02-23T07:57:47;12.13;;;7.87;;
10430;SDS011;5262;59.958;17.726;2024-02-23T08:00:13;11.80;;;7.77;;
10430;SDS011;5262;59.958;17.726;2024-02-23T08:02:39;499.30;;;64.13;;
10430;SDS011;5262;59.958;17.726;2024-02-23T08:05:05;12.57;;;7.43;;
10430;SDS011;5262;59.958;17.726;2024-02-23T08:07:32;11.33;;;8.30;;
10430;SDS011;5262;59.958;17.726;2024-02-23T08:09:58;12.37;;;9.47;;
10430;SDS011;5262;59.958;17.726;2024-02-23T08:12:23;12.20;;;8.93;;
10430;SDS011;5262;59.958;17.726;2024-02-23T08:14:49;12.90;;;8.93;;
10430;SDS011;5262;59.958;17.726;2024-02-23T08:17:18;13.23;;;9.73;;
10430;SDS011;5262;59.958;17.726;2024-02-23T08:19:44;40.77;;;11.37;;
10430;SDS011;5262;59.958;17.726;2024-02-23T08:22:09;169.13;;;43.17;;
10430;SDS011;5262;59.958;17.726;2024-02-23T08:24:35;12.90;;;9.93;;
10430;SDS011;5262;59.958;17.726;2024-02-23T08:27:01;13.10;;;10.03;;
10430;SDS011;5262;59.958;17.726;2024-02-23T08:29:27;13.73;;;10.27;;
10430;SDS011;5262;59.958;17.726;2024-02-23T08:31:53;13.57;;;9.90;;
10430;SDS011;5262;59.958;17.726;2024-02-23T08:34:19;11.63;;;8.40;;
10430;SDS011;5262;59.958;17.726;2024-02-23T08:36:44;12.67;;;9.30;;
10430;SDS011;5262;59.958;17.726;2024-02-23T08:39:10;14.60;;;9.67;;
10430;SDS011;5262;59.958;17.726;2024-02-23T08:41:36;13.47;;;9.50;;
10430;SDS011;5262;59.958;17.726;2024-02-23T08:44:02;14.73;;;9.97;;
10430;SDS011;5262;59.958;17.726;2024-02-23T08:46:27;13.87;;;8.40;;
10430;SDS011;5262;59.958;17.726;2024-02-23T08:48:53;14.77;;;8.23;;
10430;SDS011;5262;59.958;17.726;2024-02-23T08:51:19;14.03;;;8.77;;
10430;SDS011;5262;59.958;17.726;2024-02-23T08:53:44;11.40;;;7.87;;
10430;SDS011;5262;59.958;17.726;2024-02-23T08:56:11;13.73;;;8.07;;
10430;SDS011;5262;59.958;17.726;2024-02-23T08:58:37;10.47;;;7.70;;
10430;SDS011;5262;59.958;17.726;2024-02-23T09:01:03;9.30;;;7.70;;
10430;SDS011;5262;59.958;17.726;2024-02-23T09:03:29;8.90;;;7.00;;
10430;SDS011;5262;59.958;17.726;2024-02-23T09:05:56;11.17;;;7.17;;
10430;SDS011;5262;59.958;17.726;2024-02-23T09:08:22;9.33;;;6.93;;
10430;SDS011;5262;59.958;17.726;2024-02-23T09:10:48;10.87;;;8.03;;
10430;SDS011;5262;59.958;17.726;2024-02-23T09:13:14;9.17;;;6.83;;
10430;SDS011;5262;59.958;17.726;2024-02-23T09:15:40;9.27;;;6.43;;
10430;SDS011;5262;59.958;17.726;2024-02-23T09:18:07;9.77;;;6.37;;
10430;SDS011;5262;59.958;17.726;2024-02-23T09:20:33;8.83;;;6.23;;
10430;SDS011;5262;59.958;17.726;2024-02-23T09:22:58;7.00;;;6.07;;
10430;SDS011;5262;59.958;17.726;2024-02-23T09:25:24;10.93;;;6.70;;
10430;SDS011;5262;59.958;17.726;2024-02-23T09:27:50;7.93;;;6.37;;
10430;SDS011;5262;59.958;17.726;2024-02-23T09:30:15;9.77;;;6.30;;
10430;SDS011;5262;59.958;17.726;2024-02-23T09:32:41;11.10;;;7.17;;
10430;SDS011;5262;59.958;17.726;2024-02-23T09:35:08;10.07;;;7.23;;
10430;SDS011;5262;59.958;17.726;2024-02-23T09:37:33;9.57;;;7.90;;
10430;SDS011;5262;59.958;17.726;2024-02-23T09:39:59;12.17;;;7.83;;
10430;SDS011;5262;59.958;17.726;2024-02-23T09:42:24;12.07;;;7.43;;
10430;SDS011;5262;59.958;17.726;2024-02-23T09:44:57;9.40;;;7.47;;
10430;SDS011;5262;59.958;17.726;2024-02-23T09:47:27;8.87;;;7.60;;
10430;SDS011;5262;59.958;17.726;2024-02-23T09:49:54;12.00;;;8.07;;
10430;SDS011;5262;59.958;17.726;2024-02-23T09:52:20;10.90;;;8.67;;
10430;SDS011;5262;59.958;17.726;2024-02-23T09:54:47;10.60;;;8.63;;
10430;SDS011;5262;59.958;17.726;2024-02-23T09:57:13;11.13;;;7.90;;
10430;SDS011;5262;59.958;17.726;2024-02-23T09:59:40;10.67;;;8.13;;
10430;SDS011;5262;59.958;17.726;2024-02-23T10:02:09;12.57;;;8.07;;
10430;SDS011;5262;59.958;17.726;2024-02-23T10:04:42;10.17;;;7.87;;
10430;SDS011;5262;59.958;17.726;2024-02-23T10:07:08;8.47;;;6.60;;
10430;SDS011;5262;59.958;17.726;2024-02-23T10:09:34;10.47;;;7.53;;
10430;SDS011;5262;59.958;17.726;2024-02-23T10:12:01;7.50;;;6.77;;
10430;SDS011;5262;59.958;17.726;2024-02-23T10:14:27;11.03;;;7.80;;
10430;SDS011;5262;59.958;17.726;2024-02-23T10:16:53;10.10;;;7.43;;
10430;SDS011;5262;59.958;17.726;2024-02-23T10:19:20;7.80;;;6.90;;
10430;SDS011;5262;59.958;17.726;2024-02-23T10:21:46;10.87;;;7.13;;
10430;SDS011;5262;59.958;17.726;2024-02-23T10:24:12;8.67;;;6.73;;
10430;SDS011;5262;59.958;17.726;2024-02-23T10:26:38;9.00;;;6.90;;
10430;SDS011;5262;59.958;17.726;2024-02-23T10:29:03;9.23;;;6.83;;
10430;SDS011;5262;59.958;17.726;2024-02-23T10:31:34;7.17;;;6.03;;
10430;SDS011;5262;59.958;17.726;2024-02-23T10:34:07;7.03;;;5.80;;
10430;SDS011;5262;59.958;17.726;2024-02-23T10:36:40;6.17;;;5.50;;
10430;SDS011;5262;59.958;17.726;2024-02-23T10:39:10;8.77;;;5.90;;
10430;SDS011;5262;59.958;17.726;2024-02-23T10:41:39;7.43;;;5.30;;
10430;SDS011;5262;59.958;17.726;2024-02-23T10:44:09;5.50;;;3.90;;
10430;SDS011;5262;59.958;17.726;2024-02-23T10:46:36;6.20;;;3.40;;
10430;SDS011;5262;59.958;17.726;2024-02-23T10:49:02;3.67;;;3.13;;
10430;SDS011;5262;59.958;17.726;2024-02-23T10:51:28;4.37;;;3.67;;
10430;SDS011;5262;59.958;17.726;2024-02-23T10:53:54;4.13;;;3.03;;
10430;SDS011;5262;59.958;17.726;2024-02-23T10:56:20;3.80;;;3.30;;
10430;SDS011;5262;59.958;17.726;2024-02-23T10:58:47;3.93;;;3.37;;
10430;SDS011;5262;59.958;17.726;2024-02-23T11:01:13;4.40;;;3.40;;
10430;SDS011;5262;59.958;17.726;2024-02-23T11:03:41;4.20;;;3.40;;
10430;SDS011;5262;59.958;17.726;2024-02-23T11:06:09;5.90;;;3.37;;
10430;SDS011;5262;59.958;17.726;2024-02-23T11:08:36;7.47;;;3.10;;
10430;SDS011;5262;59.958;17.726;2024-02-23T11:11:08;3.00;;;2.50;;
10430;SDS011;5262;59.958;17.726;2024-02-23T11:13:35;3.03;;;2.00;;
10430;SDS011;5262;59.958;17.726;2024-02-23T11:16:02;3.17;;;1.83;;
10430;SDS011;5262;59.958;17.726;2024-02-23T11:18:29;2.27;;;1.63;;
10430;SDS011;5262;59.958;17.726;2024-02-23T11:20:55;2.47;;;1.83;;
10430;SDS011;5262;59.958;17.726;2024-02-23T11:23:24;2.27;;;1.70;;
10430;SDS011;5262;59.958;17.726;2024-02-23T11:28:28;1.70;;;1.37;;
10430;SDS011;5262;59.958;17.726;2024-02-23T11:30:53;2.27;;;1.67;;
10430;SDS011;5262;59.958;17.726;2024-02-23T11:33:29;2.17;;;1.40;;
10430;SDS011;5262;59.958;17.726;2024-02-23T11:36:08;3.60;;;1.77;;
10430;SDS011;5262;59.958;17.726;2024-02-23T11:38:34;4.33;;;1.40;;
10430;SDS011;5262;59.958;17.726;2024-02-23T11:41:01;2.97;;;1.80;;
10430;SDS011;5262;59.958;17.726;2024-02-23T11:43:28;2.10;;;1.50;;
10430;SDS011;5262;59.958;17.726;2024-02-23T11:45:54;2.43;;;1.60;;
10430;SDS011;5262;59.958;17.726;2024-02-23T11:48:19;2.20;;;1.60;;
10430;SDS011;5262;59.958;17.726;2024-02-23T11:50:47;2.60;;;1.60;;
10430;SDS011;5262;59.958;17.726;2024-02-23T11:53:14;1.90;;;1.43;;
10430;SDS011;5262;59.958;17.726;2024-02-23T11:55:39;3.83;;;1.73;;
10430;SDS011;5262;59.958;17.726;2024-02-23T11:58:05;3.43;;;1.63;;
10430;SDS011;5262;59.958;17.726;2024-02-23T12:00:32;2.33;;;1.40;;
10430;SDS011;5262;59.958;17.726;2024-02-23T12:02:58;3.07;;;1.20;;
10430;SDS011;5262;59.958;17.726;2024-02-23T12:05:24;2.50;;;1.37;;
10430;SDS011;5262;59.958;17.726;2024-02-23T12:07:50;2.10;;;1.07;;
10430;SDS011;5262;59.958;17.726;2024-02-23T12:10:16;2.77;;;1.50;;
10430;SDS011;5262;59.958;17.726;2024-02-23T12:12:42;2.07;;;1.20;;
10430;SDS011;5262;59.958;17.726;2024-02-23T12:15:08;2.43;;;1.30;;
10430;SDS011;5262;59.958;17.726;2024-02-23T12:17:37;2.00;;;1.30;;
10430;SDS011;5262;59.958;17.726;2024-02-23T12:20:03;1.97;;;1.10;;
10430;SDS011;5262;59.958;17.726;2024-02-23T12:22:29;2.33;;;1.10;;
10430;SDS011;5262;59.958;17.726;2024-02-23T12:25:01;2.17;;;1.10;;
10430;SDS011;5262;59.958;17.726;2024-02-23T12:27:27;2.07;;;1.10;;
10430;SDS011;5262;59.958;17.726;2024-02-23T12:29:54;1.73;;;1.10;;
10430;SDS011;5262;59.958;17.726;2024-02-23T12:32:20;2.13;;;1.20;;
10430;SDS011;5262;59.958;17.726;2024-02-23T12:34:46;2.27;;;1.10;;
10430;SDS011;5262;59.958;17.726;2024-02-23T12:37:18;2.60;;;1.20;;
10430;SDS011;5262;59.958;17.726;2024-02-23T12:39:45;2.17;;;0.97;;
10430;SDS011;5262;59.958;17.726;2024-02-23T12:42:10;2.77;;;1.00;;
10430;SDS011;5262;59.958;17.726;2024-02-23T12:44:36;2.07;;;1.10;;
10430;SDS011;5262;59.958;17.726;2024-02-23T12:47:02;2.03;;;0.80;;
10430;SDS011;5262;59.958;17.726;2024-02-23T12:49:28;3.17;;;1.20;;
10430;SDS011;5262;59.958;17.726;2024-02-23T12:51:54;2.40;;;0.93;;
10430;SDS011;5262;59.958;17.726;2024-02-23T12:54:20;2.67;;;0.87;;
10430;SDS011;5262;59.958;17.726;2024-02-23T12:56:46;3.33;;;0.63;;
10430;SDS011;5262;59.958;17.726;2024-02-23T12:59:11;4.50;;;0.67;;
10430;SDS011;5262;59.958;17.726;2024-02-23T13:01:37;2.13;;;0.90;;
10430;SDS011;5262;59.958;17.726;2024-02-23T13:04:04;3.00;;;0.90;;
10430;SDS011;5262;59.958;17.726;2024-02-23T13:06:39;3.27;;;0.90;;
10430;SDS011;5262;59.958;17.726;2024-02-23T13:09:05;3.30;;;0.80;;
10430;SDS011;5262;59.958;17.726;2024-02-23T13:11:35;2.93;;;0.60;;
10430;SDS011;5262;59.958;17.726;2024-02-23T13:14:03;2.93;;;0.80;;
10430;SDS011;5262;59.958;17.726;2024-02-23T13:16:28;2.03;;;0.70;;
10430;SDS011;5262;59.958;17.726;2024-02-23T13:18:55;2.33;;;0.67;;
10430;SDS011;5262;59.958;17.726;2024-02-23T13:21:20;2.87;;;1.00;;
10430;SDS011;5262;59.958;17.726;2024-02-23T13:23:46;3.80;;;0.80;;
10430;SDS011;5262;59.958;17.726;2024-02-23T13:26:12;2.83;;;0.80;;
10430;SDS011;5262;59.958;17.726;2024-02-23T13:28:39;2.33;;;0.87;;
10430;SDS011;5262;59.958;17.726;2024-02-23T13:31:09;1.70;;;0.80;;
10430;SDS011;5262;59.958;17.726;2024-02-23T13:33:35;0.83;;;0.60;;
10430;SDS011;5262;59.958;17.726;2024-02-23T13:36:01;2.33;;;0.90;;
10430;SDS011;5262;59.958;17.726;2024-02-23T13:38:26;5.13;;;0.90;;
10430;SDS011;5262;59.958;17.726;2024-02-23T13:40:52;3.77;;;0.80;;
10430;SDS011;5262;59.958;17.726;2024-02-23T13:43:18;3.10;;;1.00;;
10430;SDS011;5262;59.958;17.726;2024-02-23T13:45:48;3.67;;;0.90;;
10430;SDS011;5262;59.958;17.726;2024-02-23T13:48:17;3.57;;;0.70;;
10430;SDS011;5262;59.958;17.726;2024-02-23T13:50:47;2.93;;;0.73;;
10430;SDS011;5262;59.958;17.726;2024-02-23T13:53:13;5.37;;;0.90;;
10430;SDS011;5262;59.958;17.726;2024-02-23T13:55:40;2.53;;;0.77;;
10430;SDS011;5262;59.958;17.726;2024-02-23T13:58:09;3.83;;;0.97;;
10430;SDS011;5262;59.958;17.726;2024-02-23T14:00:35;3.17;;;0.80;;
10430;SDS011;5262;59.958;17.726;2024-02-23T14:03:00;7.97;;;1.17;;
10430;SDS011;5262;59.958;17.726;2024-02-23T14:05:26;3.77;;;0.70;;
10430;SDS011;5262;59.958;17.726;2024-02-23T14:07:52;7.40;;;0.90;;
10430;SDS011;5262;59.958;17.726;2024-02-23T14:10:18;4.47;;;1.17;;
10430;SDS011;5262;59.958;17.726;2024-02-23T14:12:44;7.20;;;1.07;;
10430;SDS011;5262;59.958;17.726;2024-02-23T14:15:10;4.47;;;0.90;;
10430;SDS011;5262;59.958;17.726;2024-02-23T14:17:37;4.47;;;1.00;;
10430;SDS011;5262;59.958;17.726;2024-02-23T14:20:03;2.90;;;0.90;;
10430;SDS011;5262;59.958;17.726;2024-02-23T14:22:30;4.17;;;0.83;;
10430;SDS011;5262;59.958;17.726;2024-02-23T14:24:56;3.07;;;0.90;;
10430;SDS011;5262;59.958;17.726;2024-02-23T14:27:22;3.63;;;0.80;;
10430;SDS011;5262;59.958;17.726;2024-02-23T14:29:48;5.60;;;0.90;;
10430;SDS011;5262;59.958;17.726;2024-02-23T14:32:15;5.60;;;1.07;;
10430;SDS011;5262;59.958;17.726;2024-02-23T14:34:41;6.30;;;1.00;;